Time;durP1;ratioP1;P1;durP2;ratioP2;P2;SDS_P1;SDS_P2;PMS_P1;PMS_P2;Temp;Humidity;BMP_temperature;BMP_pressure;BME280_temperature;BME280_humidity;BME280_pressure;Samples;Min_cycle;Max_cycle;Signal;HPM_P1;HPM_P2
2021/03/07 00:01:17;;;;;;;;;;;0.60;80.80;;;;;;4949004;29;19925;-78
2021/03/07 00:03:45;;;;;;;;;;;0.60;80.80;;;;;;4950956;28;20277;-79
2021/03/07 00:06:10;;;;;;;;;;;0.60;80.50;;;;;;4947716;28;19965;-78
2021/03/07 00:08:38;;;;;;;;;;;0.60;80.50;;;;;;4945231;28;19961;-78
2021/03/07 00:11:03;;;;;;;;;;;0.60;81.50;;;;;;4945970;29;19942;-78
2021/03/07 00:13:29;;;;;;;;;;;0.60;81.20;;;;;;4948368;28;19914;-78
2021/03/07 00:15:57;;;;;;;;;;;0.60;81.20;;;;;;4946716;29;20487;-78
2021/03/07 00:18:23;;;;;;;;;;;0.50;81.30;;;;;;4946095;29;19914;-78
2021/03/07 00:20:48;;;;;;;;;;;0.50;81.30;;;;;;4949957;28;19910;-78
2021/03/07 00:23:14;;;;;;;;;;;0.50;81.80;;;;;;4948725;28;19910;-78
2021/03/07 00:25:44;;;;;;;;;;;0.50;81.70;;;;;;4948945;29;19910;-78
2021/03/07 00:28:13;;;;;;;;;;;0.50;81.30;;;;;;4950401;28;20009;-78
2021/03/07 00:30:38;;;;;;;;;;;0.50;80.70;;;;;;4948841;28;19910;-78
2021/03/07 00:33:04;;;;;;;;;;;0.50;82.00;;;;;;4948133;29;19929;-78
2021/03/07 00:35:32;;;;;;;;;;;0.40;81.80;;;;;;4947935;29;19922;-78
2021/03/07 00:38:02;;;;;;;;;;;0.40;81.80;;;;;;4948559;28;19970;-79
2021/03/07 00:40:30;;;;;;;;;;;0.40;81.30;;;;;;4963471;28;19911;-78
2021/03/07 00:42:57;;;;;;;;;;;0.50;81.40;;;;;;4949654;28;19922;-78
2021/03/07 00:45:23;;;;;;;;;;;0.40;81.70;;;;;;4946165;28;19966;-78
2021/03/07 00:47:49;;;;;;;;;;;0.40;81.40;;;;;;4946564;29;19988;-78
2021/03/07 00:50:17;;;;;;;;;;;0.40;81.80;;;;;;4947685;28;19910;-78
2021/03/07 00:52:43;;;;;;;;;;;0.40;81.40;;;;;;4945042;29;19914;-78
2021/03/07 00:55:10;;;;;;;;;;;0.40;82.00;;;;;;4948639;28;20253;-78
2021/03/07 00:57:38;;;;;;;;;;;0.40;81.40;;;;;;4945525;29;19910;-78
2021/03/07 01:00:09;;;;;;;;;;;0.40;82.00;;;;;;4945034;29;19921;-77
2021/03/07 01:02:35;;;;;;;;;;;0.30;82.30;;;;;;4947503;29;19973;-77
2021/03/07 01:05:00;;;;;;;;;;;0.30;82.60;;;;;;4945396;28;19914;-78
2021/03/07 01:07:30;;;;;;;;;;;0.30;82.70;;;;;;4948819;28;19919;-78
2021/03/07 01:09:58;;;;;;;;;;;0.30;82.20;;;;;;4950388;29;20394;-77
2021/03/07 01:12:24;;;;;;;;;;;0.30;82.50;;;;;;4953619;28;19973;-78
2021/03/07 01:14:49;;;;;;;;;;;0.30;83.00;;;;;;4948332;29;19918;-78
2021/03/07 01:17:15;;;;;;;;;;;0.30;83.20;;;;;;4948511;28;19920;-77
2021/03/07 01:19:40;;;;;;;;;;;0.30;82.60;;;;;;4946817;28;19922;-77
2021/03/07 01:22:06;;;;;;;;;;;0.30;82.90;;;;;;4945795;28;19914;-78
2021/03/07 01:24:34;;;;;;;;;;;0.30;82.70;;;;;;4948331;28;19911;-77
2021/03/07 01:27:00;;;;;;;;;;;0.30;82.20;;;;;;4947053;28;19910;-77
2021/03/07 01:29:25;;;;;;;;;;;0.30;82.60;;;;;;4947922;29;19922;-77
2021/03/07 01:31:53;;;;;;;;;;;0.20;82.40;;;;;;4946442;29;19964;-80
2021/03/07 01:34:19;;;;;;;;;;;0.30;82.60;;;;;;4949570;29;20090;-77
2021/03/07 01:36:44;;;;;;;;;;;0.20;82.10;;;;;;4948032;29;19914;-77
2021/03/07 01:39:10;;;;;;;;;;;0.20;83.00;;;;;;4947347;29;19914;-78
2021/03/07 01:41:38;;;;;;;;;;;0.20;82.50;;;;;;4949920;28;19910;-77
2021/03/07 01:44:06;;;;;;;;;;;0.20;82.20;;;;;;4947374;29;20002;-77
2021/03/07 01:46:31;;;;;;;;;;;0.20;81.80;;;;;;4945412;29;20391;-79
2021/03/07 01:48:57;;;;;;;;;;;0.20;82.30;;;;;;4945106;28;19973;-77
2021/03/07 01:51:25;;;;;;;;;;;0.20;82.30;;;;;;4944477;29;19969;-78
2021/03/07 01:53:53;;;;;;;;;;;0.20;82.30;;;;;;4945219;28;19914;-78
2021/03/07 01:56:18;;;;;;;;;;;0.20;82.30;;;;;;4943466;29;20304;-77
2021/03/07 01:58:46;;;;;;;;;;;0.20;82.40;;;;;;4941345;29;20001;-76
2021/03/07 02:01:12;;;;;;;;;;;0.10;82.00;;;;;;4948572;28;19921;-77
2021/03/07 02:03:50;;;;;;;;;;;0.10;82.10;;;;;;4945807;28;19910;-78
2021/03/07 02:06:18;;;;;;;;;;;0.10;82.60;;;;;;4947769;28;19918;-77
2021/03/07 02:08:43;;;;;;;;;;;0.10;82.30;;;;;;4946420;28;19910;-77
2021/03/07 02:11:09;;;;;;;;;;;0.10;82.30;;;;;;4948478;29;19910;-78
2021/03/07 02:13:35;;;;;;;;;;;0.10;82.20;;;;;;4943032;29;19914;-78
2021/03/07 02:16:30;;;;;;;;;;;0.10;83.00;;;;;;4936002;29;19925;-77
2021/03/07 02:18:58;;;;;;;;;;;0.10;82.10;;;;;;4935827;29;19921;-77
2021/03/07 02:21:25;;;;;;;;;;;0.10;82.60;;;;;;4944573;28;19910;-77
2021/03/07 02:24:08;;;;;;;;;;;0.10;82.70;;;;;;4941882;29;19910;-77
2021/03/07 02:26:35;;;;;;;;;;;0.10;82.40;;;;;;4946244;29;19949;-78
2021/03/07 02:29:00;;;;;;;;;;;0.00;82.20;;;;;;4946603;28;19915;-77
2021/03/07 02:31:28;;;;;;;;;;;0.00;82.30;;;;;;4946756;28;20266;-77
2021/03/07 02:33:58;;;;;;;;;;;0.00;81.90;;;;;;4947008;29;20520;-77
2021/03/07 02:36:27;;;;;;;;;;;0.00;82.50;;;;;;4944320;29;19942;-77
2021/03/07 02:38:53;;;;;;;;;;;0.00;82.50;;;;;;4957755;28;20499;-77
2021/03/07 02:41:18;;;;;;;;;;;0.00;82.40;;;;;;4952281;28;19949;-79
2021/03/07 02:43:51;;;;;;;;;;;0.00;82.30;;;;;;4943770;28;19911;-78
2021/03/07 02:46:19;;;;;;;;;;;0.00;82.50;;;;;;4930020;29;19957;-78
2021/03/07 02:48:47;;;;;;;;;;;0.00;82.70;;;;;;4948742;28;19911;-78
2021/03/07 02:51:18;;;;;;;;;;;-0.10;82.80;;;;;;4948548;28;19926;-77
2021/03/07 02:53:46;;;;;;;;;;;-0.10;83.30;;;;;;4945755;29;19945;-77
2021/03/07 02:56:12;;;;;;;;;;;-0.10;82.90;;;;;;4945966;28;19921;-77
2021/03/07 02:58:38;;;;;;;;;;;-0.10;83.50;;;;;;4946663;29;20346;-77
2021/03/07 03:01:07;;;;;;;;;;;-0.10;83.30;;;;;;4966783;28;19921;-77
2021/03/07 03:03:42;;;;;;;;;;;-0.10;83.50;;;;;;4949897;28;20452;-78
2021/03/07 03:06:11;;;;;;;;;;;-0.10;83.40;;;;;;4966422;28;20345;-77
2021/03/07 03:08:36;;;;;;;;;;;-0.10;83.40;;;;;;4965030;28;19994;-77
2021/03/07 03:11:07;;;;;;;;;;;-0.10;83.40;;;;;;4968221;28;20367;-77
2021/03/07 03:13:34;;;;;;;;;;;-0.20;83.30;;;;;;4950036;28;20001;-77
2021/03/07 03:16:02;;;;;;;;;;;-0.20;83.50;;;;;;4951198;28;19933;-77
2021/03/07 03:18:33;;;;;;;;;;;-0.20;83.60;;;;;;4950794;28;20026;-77
2021/03/07 03:21:04;;;;;;;;;;;-0.20;83.30;;;;;;4945632;29;19930;-77
2021/03/07 03:23:29;;;;;;;;;;;-0.20;83.50;;;;;;4965815;28;20001;-77
2021/03/07 03:25:55;;;;;;;;;;;-0.10;83.00;;;;;;4951683;29;20022;-77
2021/03/07 03:28:20;;;;;;;;;;;-0.20;83.50;;;;;;4948998;29;19950;-77
2021/03/07 03:30:46;;;;;;;;;;;-0.20;83.30;;;;;;4951696;28;19923;-77
2021/03/07 03:33:11;;;;;;;;;;;-0.20;83.70;;;;;;4956630;28;19972;-78
2021/03/07 03:35:41;;;;;;;;;;;-0.20;83.20;;;;;;4950757;29;20583;-77
2021/03/07 03:38:07;;;;;;;;;;;-0.20;83.90;;;;;;4952971;28;19972;-77
2021/03/07 03:40:32;;;;;;;;;;;-0.20;83.40;;;;;;4935804;29;19949;-77
2021/03/07 03:43:02;;;;;;;;;;;-0.30;83.40;;;;;;4951174;28;19910;-77
2021/03/07 03:45:30;;;;;;;;;;;-0.30;83.70;;;;;;4944150;29;20336;-79
2021/03/07 03:47:59;;;;;;;;;;;-0.30;83.60;;;;;;4954526;28;19958;-77
2021/03/07 03:50:27;;;;;;;;;;;-0.30;83.50;;;;;;4947245;29;19932;-76
2021/03/07 03:52:53;;;;;;;;;;;-0.30;83.50;;;;;;4950317;28;19993;-77
2021/03/07 03:55:19;;;;;;;;;;;-0.30;83.70;;;;;;4946882;29;20335;-77
2021/03/07 03:57:45;;;;;;;;;;;-0.30;83.80;;;;;;4956198;28;19911;-78
2021/03/07 04:00:24;;;;;;;;;;;-0.30;83.50;;;;;;4945421;29;20009;-78
2021/03/07 04:02:49;;;;;;;;;;;-0.30;83.80;;;;;;4948673;29;19932;-78
2021/03/07 04:05:18;;;;;;;;;;;-0.30;84.40;;;;;;4947624;29;19910;-78
2021/03/07 04:07:47;;;;;;;;;;;-0.30;83.70;;;;;;4948834;29;20004;-78
2021/03/07 04:10:15;;;;;;;;;;;-0.40;84.40;;;;;;4950322;28;19911;-77
2021/03/07 04:12:41;;;;;;;;;;;-0.40;85.00;;;;;;4947276;28;20348;-77
2021/03/07 04:15:06;;;;;;;;;;;-0.40;85.00;;;;;;4966674;28;19914;-77
2021/03/07 04:17:34;;;;;;;;;;;-0.40;84.90;;;;;;4965469;28;19981;-77
2021/03/07 04:20:00;;;;;;;;;;;-0.40;84.90;;;;;;4948362;29;19918;-77
2021/03/07 04:22:28;;;;;;;;;;;-0.40;84.20;;;;;;4938831;29;19910;-77
2021/03/07 04:24:54;;;;;;;;;;;-0.40;84.40;;;;;;4945514;28;19911;-77
2021/03/07 04:27:22;;;;;;;;;;;-0.40;84.30;;;;;;4949874;29;19921;-77
2021/03/07 04:29:48;;;;;;;;;;;-0.40;84.10;;;;;;4937458;29;19919;-77
2021/03/07 04:32:16;;;;;;;;;;;-0.40;84.10;;;;;;4948635;28;20263;-77
2021/03/07 04:34:44;;;;;;;;;;;-0.50;83.30;;;;;;4928866;29;19925;-76
2021/03/07 04:37:12;;;;;;;;;;;-0.40;84.30;;;;;;4949314;29;19960;-77
2021/03/07 04:39:40;;;;;;;;;;;-0.50;84.10;;;;;;4948625;29;19914;-78
2021/03/07 04:42:05;;;;;;;;;;;-0.40;84.80;;;;;;4949617;29;19911;-77
2021/03/07 04:44:34;;;;;;;;;;;-0.50;84.70;;;;;;4948029;28;19941;-77
2021/03/07 04:47:02;;;;;;;;;;;-0.40;85.00;;;;;;4947926;29;19914;-78
2021/03/07 04:49:27;;;;;;;;;;;-0.50;84.90;;;;;;4950474;28;19929;-77
2021/03/07 04:51:55;;;;;;;;;;;-0.40;85.00;;;;;;4948170;29;19914;-78
2021/03/07 04:54:21;;;;;;;;;;;-0.50;84.50;;;;;;4951193;28;19957;-77
2021/03/07 04:56:51;;;;;;;;;;;-0.50;84.50;;;;;;4949336;29;19949;-77
2021/03/07 04:59:19;;;;;;;;;;;-0.50;85.10;;;;;;4948653;29;19973;-77
2021/03/07 05:01:45;;;;;;;;;;;-0.50;84.40;;;;;;4948857;28;19921;-77
2021/03/07 05:04:10;;;;;;;;;;;-0.50;84.70;;;;;;4945926;29;20035;-78
2021/03/07 05:06:40;;;;;;;;;;;-0.50;84.50;;;;;;4946543;28;19911;-77
2021/03/07 05:09:06;;;;;;;;;;;-0.50;84.60;;;;;;4948490;29;19914;-78
2021/03/07 05:11:32;;;;;;;;;;;-0.50;84.60;;;;;;4947745;29;19934;-78
2021/03/07 05:13:57;;;;;;;;;;;-0.50;84.80;;;;;;4948006;28;20475;-76
2021/03/07 05:16:23;;;;;;;;;;;-0.50;84.80;;;;;;4945835;29;19961;-76
2021/03/07 05:18:48;;;;;;;;;;;-0.50;85.00;;;;;;4945650;28;19922;-77
2021/03/07 05:21:14;;;;;;;;;;;-0.50;84.20;;;;;;4948515;29;19914;-77
2021/03/07 05:23:39;;;;;;;;;;;-0.50;84.60;;;;;;4946549;28;20001;-77
2021/03/07 05:26:05;;;;;;;;;;;-0.60;84.50;;;;;;4945041;29;20343;-77
2021/03/07 05:28:33;;;;;;;;;;;-0.60;84.70;;;;;;4945986;29;19962;-76
2021/03/07 05:30:59;;;;;;;;;;;-0.60;84.70;;;;;;4944968;28;19910;-76
2021/03/07 05:33:24;;;;;;;;;;;-0.60;84.90;;;;;;4947192;28;19919;-77
2021/03/07 05:35:52;;;;;;;;;;;-0.60;84.10;;;;;;4947685;29;19910;-76
2021/03/07 05:38:20;;;;;;;;;;;-0.70;84.20;;;;;;4949146;28;19937;-77
2021/03/07 05:40:45;;;;;;;;;;;-0.60;84.60;;;;;;4948479;29;20261;-76
2021/03/07 05:43:11;;;;;;;;;;;-0.60;84.90;;;;;;4948670;28;20018;-76
2021/03/07 05:45:36;;;;;;;;;;;-0.70;85.20;;;;;;4950619;29;19918;-76
2021/03/07 05:48:04;;;;;;;;;;;-0.70;85.00;;;;;;4946415;29;19910;-76
2021/03/07 05:50:30;;;;;;;;;;;-0.70;84.80;;;;;;4947977;28;19965;-77
2021/03/07 05:52:58;;;;;;;;;;;-0.70;84.40;;;;;;4947803;29;20269;-76
2021/03/07 05:55:27;;;;;;;;;;;-0.70;84.50;;;;;;4945849;29;19922;-77
2021/03/07 05:57:52;;;;;;;;;;;-0.70;85.00;;;;;;4947598;29;19910;-77
2021/03/07 06:00:21;;;;;;;;;;;-0.70;84.70;;;;;;4947470;28;19910;-77
2021/03/07 06:02:49;;;;;;;;;;;-0.80;85.10;;;;;;4938526;29;19946;-77
2021/03/07 06:05:15;;;;;;;;;;;-0.70;84.90;;;;;;4942274;29;19911;-77
2021/03/07 06:07:41;;;;;;;;;;;-0.80;85.30;;;;;;4947475;29;19919;-77
2021/03/07 06:10:10;;;;;;;;;;;-0.80;85.30;;;;;;4941768;28;19910;-78
2021/03/07 06:12:36;;;;;;;;;;;-0.80;84.90;;;;;;4946635;29;19910;-77
2021/03/07 06:15:02;;;;;;;;;;;-0.80;85.30;;;;;;4945311;28;19928;-77
2021/03/07 06:17:43;;;;;;;;;;;-0.80;85.40;;;;;;4946406;28;19944;-76
2021/03/07 06:20:14;;;;;;;;;;;-0.80;85.10;;;;;;4947600;29;19922;-77
2021/03/07 06:22:40;;;;;;;;;;;-0.80;85.10;;;;;;4945795;28;19910;-77
2021/03/07 06:25:11;;;;;;;;;;;-0.80;85.10;;;;;;4946796;28;20428;-76
2021/03/07 06:27:39;;;;;;;;;;;-0.80;84.50;;;;;;4947919;28;19996;-76
2021/03/07 06:30:11;;;;;;;;;;;-0.80;84.80;;;;;;4945140;29;20344;-77
2021/03/07 06:32:39;;;;;;;;;;;-0.80;84.60;;;;;;4961321;28;19922;-76
2021/03/07 06:35:06;;;;;;;;;;;-0.80;84.80;;;;;;4947432;28;19983;-77
2021/03/07 06:37:31;;;;;;;;;;;-0.80;84.40;;;;;;4949354;28;20005;-77
2021/03/07 06:39:57;;;;;;;;;;;-0.80;84.50;;;;;;4952517;28;20417;-76
2021/03/07 06:42:25;;;;;;;;;;;-0.80;84.70;;;;;;4948781;29;19910;-76
2021/03/07 06:44:51;;;;;;;;;;;-0.80;84.70;;;;;;4945731;29;19915;-76
2021/03/07 06:47:17;;;;;;;;;;;-0.80;85.30;;;;;;4952919;28;20495;-76
2021/03/07 06:49:42;;;;;;;;;;;-0.80;85.20;;;;;;4949983;28;19950;-76
2021/03/07 06:52:18;;;;;;;;;;;-0.80;84.80;;;;;;4949568;29;19910;-76
2021/03/07 06:54:47;;;;;;;;;;;-0.80;84.70;;;;;;4949872;28;19921;-76
2021/03/07 06:57:15;;;;;;;;;;;-0.80;84.40;;;;;;4951437;29;20355;-76
2021/03/07 06:59:48;;;;;;;;;;;-0.80;84.50;;;;;;4952405;28;19942;-75
2021/03/07 07:02:14;;;;;;;;;;;-0.80;85.00;;;;;;4951856;28;19930;-76
2021/03/07 07:04:40;;;;;;;;;;;-0.70;86.50;;;;;;4946857;29;20029;-76
2021/03/07 07:07:06;;;;;;;;;;;-0.70;85.50;;;;;;4949485;28;19946;-76
2021/03/07 07:09:34;;;;;;;;;;;-0.70;86.40;;;;;;4946308;28;20264;-76
2021/03/07 07:12:00;;;;;;;;;;;-0.70;85.90;;;;;;4950904;29;19914;-76
2021/03/07 07:14:38;;;;;;;;;;;-0.70;85.70;;;;;;4949952;29;20348;-76
2021/03/07 07:17:07;;;;;;;;;;;-0.70;85.80;;;;;;4951955;29;19911;-76
2021/03/07 07:19:32;;;;;;;;;;;-0.60;86.20;;;;;;4948166;29;19929;-76
2021/03/07 07:21:58;;;;;;;;;;;-0.70;86.20;;;;;;4948491;28;19910;-76
2021/03/07 07:24:23;;;;;;;;;;;-0.60;86.00;;;;;;4952512;28;19914;-76
2021/03/07 07:26:49;;;;;;;;;;;-0.60;86.60;;;;;;4951481;29;20340;-76
2021/03/07 07:29:16;;;;;;;;;;;-0.60;86.50;;;;;;4949947;29;19947;-76
2021/03/07 07:31:48;;;;;;;;;;;-0.50;85.50;;;;;;4948578;28;19911;-76
2021/03/07 07:34:14;;;;;;;;;;;-0.50;85.30;;;;;;4950684;29;20406;-76
2021/03/07 07:36:42;;;;;;;;;;;-0.50;85.00;;;;;;4928184;29;20229;-76
2021/03/07 07:39:09;;;;;;;;;;;-0.40;85.90;;;;;;4953184;28;19915;-76
2021/03/07 07:41:35;;;;;;;;;;;-0.40;88.40;;;;;;4945571;29;19918;-75
2021/03/07 07:44:03;;;;;;;;;;;-0.40;88.20;;;;;;4949917;29;19930;-76
2021/03/07 07:46:31;;;;;;;;;;;-0.40;87.80;;;;;;4948072;28;19922;-76
2021/03/07 07:48:59;;;;;;;;;;;-0.30;87.40;;;;;;4951136;29;19994;-76
2021/03/07 07:51:27;;;;;;;;;;;-0.20;87.30;;;;;;4946087;29;19910;-76
2021/03/07 07:53:58;;;;;;;;;;;-0.20;87.30;;;;;;4950330;29;19925;-76
2021/03/07 07:56:35;;;;;;;;;;;-0.20;87.70;;;;;;4946325;29;19998;-76
2021/03/07 07:59:00;;;;;;;;;;;-0.20;87.50;;;;;;4950544;29;19914;-76
2021/03/07 08:01:45;;;;;;;;;;;-0.10;88.20;;;;;;4949496;28;19911;-76
2021/03/07 08:04:28;;;;;;;;;;;-0.10;88.80;;;;;;4950745;29;20408;-76
2021/03/07 08:06:54;;;;;;;;;;;0.00;88.20;;;;;;4950633;28;19993;-77
2021/03/07 08:09:33;;;;;;;;;;;0.00;88.60;;;;;;4947060;28;20332;-77
2021/03/07 08:11:59;;;;;;;;;;;0.00;88.60;;;;;;4963939;28;19914;-75
2021/03/07 08:14:34;;;;;;;;;;;0.10;88.70;;;;;;4947696;28;19937;-76
2021/03/07 08:16:59;;;;;;;;;;;0.10;88.40;;;;;;4949509;28;19910;-76
2021/03/07 08:19:43;;;;;;;;;;;0.20;88.30;;;;;;4951173;29;19949;-75
2021/03/07 08:22:09;;;;;;;;;;;0.20;87.90;;;;;;4948247;29;19985;-76
2021/03/07 08:24:46;;;;;;;;;;;0.20;88.00;;;;;;4947830;28;19946;-77
2021/03/07 08:27:29;;;;;;;;;;;0.30;88.50;;;;;;4948366;29;20008;-77
2021/03/07 08:29:57;;;;;;;;;;;0.40;88.20;;;;;;4946990;29;19933;-77
2021/03/07 08:32:26;;;;;;;;;;;0.40;88.30;;;;;;4950684;28;19929;-77
2021/03/07 08:34:55;;;;;;;;;;;0.40;89.40;;;;;;4949185;29;20281;-77
2021/03/07 08:37:20;;;;;;;;;;;0.50;88.60;;;;;;4948018;29;19969;-77
2021/03/07 08:39:48;;;;;;;;;;;0.50;87.90;;;;;;4947434;29;19950;-78
2021/03/07 08:42:13;;;;;;;;;;;0.70;87.80;;;;;;4966120;28;19918;-77
2021/03/07 08:44:39;;;;;;;;;;;0.80;88.40;;;;;;4961877;28;19989;-78
2021/03/07 08:47:04;;;;;;;;;;;0.80;94.50;;;;;;4950090;29;19921;-77
2021/03/07 08:49:31;;;;;;;;;;;1.10;90.30;;;;;;4949936;28;20291;-78
2021/03/07 08:52:00;;;;;;;;;;;1.30;91.00;;;;;;4948109;28;19919;-78
2021/03/07 08:54:31;;;;;;;;;;;1.50;88.40;;;;;;4948396;29;20301;-78
2021/03/07 08:56:57;;;;;;;;;;;1.80;87.00;;;;;;4954016;28;19958;-78
2021/03/07 08:59:26;;;;;;;;;;;2.10;89.00;;;;;;4947969;28;19953;-78
2021/03/07 09:01:56;;;;;;;;;;;2.20;87.80;;;;;;4929156;29;19922;-78
2021/03/07 09:04:22;;;;;;;;;;;2.30;90.00;;;;;;4950201;29;19917;-79
2021/03/07 09:06:48;;;;;;;;;;;2.50;86.10;;;;;;4945210;29;19910;-79
2021/03/07 09:09:15;;;;;;;;;;;2.70;84.80;;;;;;4949076;28;20009;-79
2021/03/07 09:11:51;;;;;;;;;;;2.90;85.50;;;;;;4952031;28;20009;-78
2021/03/07 09:14:33;;;;;;;;;;;3.00;84.30;;;;;;4948804;29;19914;-78
2021/03/07 09:16:59;;;;;;;;;;;3.20;84.90;;;;;;4952336;28;19910;-79
2021/03/07 09:19:28;;;;;;;;;;;3.30;83.40;;;;;;4944553;28;19914;-80
2021/03/07 09:22:11;;;;;;;;;;;3.50;83.80;;;;;;4949609;28;19919;-80
2021/03/07 09:24:39;;;;;;;;;;;3.70;86.00;;;;;;4948349;28;19921;-78
2021/03/07 09:27:09;;;;;;;;;;;3.90;82.00;;;;;;4947230;28;19956;-79
2021/03/07 09:29:37;;;;;;;;;;;4.10;75.50;;;;;;4948485;28;19957;-78
2021/03/07 09:32:05;;;;;;;;;;;4.20;73.60;;;;;;4946696;29;19910;-80
2021/03/07 09:34:32;;;;;;;;;;;4.30;75.10;;;;;;4946568;29;19926;-79
2021/03/07 09:36:57;;;;;;;;;;;4.50;71.80;;;;;;4945026;29;19949;-79
2021/03/07 09:39:23;;;;;;;;;;;4.60;72.60;;;;;;4943376;29;19910;-79
2021/03/07 09:41:52;;;;;;;;;;;4.60;71.40;;;;;;4943269;29;19910;-80
2021/03/07 09:44:21;;;;;;;;;;;4.70;73.10;;;;;;4947129;28;19914;-80
2021/03/07 09:46:50;;;;;;;;;;;4.80;70.70;;;;;;4944325;29;19910;-80
2021/03/07 09:49:19;;;;;;;;;;;4.90;69.70;;;;;;4944490;29;19910;-79
2021/03/07 09:51:45;;;;;;;;;;;4.90;69.10;;;;;;4944502;29;19911;-79
2021/03/07 09:54:13;;;;;;;;;;;5.00;68.50;;;;;;4966771;28;19925;-79
2021/03/07 09:56:39;;;;;;;;;;;5.10;67.00;;;;;;4947959;28;19922;-80
2021/03/07 09:59:14;;;;;;;;;;;5.20;67.70;;;;;;4945338;28;19922;-78
2021/03/07 10:01:49;;;;;;;;;;;5.20;67.40;;;;;;4947887;29;19993;-78
2021/03/07 10:04:33;;;;;;;;;;;5.20;67.90;;;;;;4946327;29;19921;-78
2021/03/07 10:07:02;;;;;;;;;;;5.30;71.00;;;;;;4957388;28;19926;-80
2021/03/07 10:09:27;;;;;;;;;;;5.40;70.90;;;;;;4945741;28;19969;-81
2021/03/07 10:11:56;;;;;;;;;;;5.50;67.90;;;;;;4950593;29;19911;-81
2021/03/07 10:14:25;;;;;;;;;;;5.60;68.30;;;;;;4952487;28;19914;-81
2021/03/07 10:16:52;;;;;;;;;;;5.70;68.50;;;;;;4950242;29;19910;-81
2021/03/07 10:19:17;;;;;;;;;;;5.80;68.00;;;;;;4951302;28;20030;-81
2021/03/07 10:21:45;;;;;;;;;;;5.80;64.50;;;;;;4951197;28;20001;-81
2021/03/07 10:24:19;;;;;;;;;;;5.80;65.90;;;;;;4720617;28;10000620;-80
2021/03/07 10:26:46;;;;;;;;;;;5.90;64.60;;;;;;4950315;29;19922;-82
2021/03/07 10:29:20;;;;;;;;;;;6.00;67.70;;;;;;4953803;28;19914;-81
2021/03/07 10:32:01;;;;;;;;;;;6.10;64.40;;;;;;4947904;28;19929;-81
2021/03/07 10:34:33;;;;;;;;;;;6.20;61.70;;;;;;4948745;28;19937;-80
2021/03/07 10:36:59;;;;;;;;;;;6.30;63.30;;;;;;4950187;28;19942;-80
2021/03/07 10:39:27;;;;;;;;;;;6.40;65.80;;;;;;4932077;29;19961;-80
2021/03/07 10:42:05;;;;;;;;;;;6.50;63.40;;;;;;4948230;29;19922;-82
2021/03/07 10:44:33;;;;;;;;;;;6.50;61.20;;;;;;4949457;28;20783;-73
2021/03/07 10:47:14;;;;;;;;;;;6.60;61.40;;;;;;4948781;29;19957;-80
2021/03/07 10:49:40;;;;;;;;;;;6.70;61.80;;;;;;4944874;29;19969;-80
2021/03/07 10:52:06;;;;;;;;;;;6.80;62.50;;;;;;4948446;29;19953;-80
2021/03/07 10:54:34;;;;;;;;;;;6.90;62.10;;;;;;4951411;28;20256;-79
2021/03/07 10:56:59;;;;;;;;;;;7.00;61.00;;;;;;4950337;28;19953;-79
2021/03/07 10:59:25;;;;;;;;;;;7.20;58.80;;;;;;4946322;29;20009;-79
2021/03/07 11:01:50;;;;;;;;;;;7.40;58.70;;;;;;4946468;28;19914;-80
2021/03/07 11:04:18;;;;;;;;;;;7.50;58.20;;;;;;4947653;28;19997;-80
2021/03/07 11:06:43;;;;;;;;;;;7.60;54.50;;;;;;4945696;28;19918;-80
2021/03/07 11:09:09;;;;;;;;;;;7.70;55.30;;;;;;4945926;29;19914;-80
2021/03/07 11:11:37;;;;;;;;;;;7.70;61.10;;;;;;4944585;29;19926;-80
2021/03/07 11:14:03;;;;;;;;;;;7.90;54.50;;;;;;4945638;29;19919;-81
2021/03/07 11:16:31;;;;;;;;;;;8.10;57.60;;;;;;4950074;28;19914;-79
2021/03/07 11:18:59;;;;;;;;;;;8.30;53.60;;;;;;4606125;28;10000336;-75
2021/03/07 11:21:29;;;;;;;;;;;8.50;55.00;;;;;;4947318;28;20340;-78
2021/03/07 11:23:54;;;;;;;;;;;8.60;55.00;;;;;;4950083;29;19921;-81
2021/03/07 11:26:24;;;;;;;;;;;8.80;49.90;;;;;;4947298;28;19911;-80
2021/03/07 11:28:50;;;;;;;;;;;8.90;54.80;;;;;;4947125;29;19914;-80
2021/03/07 11:31:15;;;;;;;;;;;9.10;53.10;;;;;;4944838;29;19969;-81
2021/03/07 11:33:43;;;;;;;;;;;9.20;57.10;;;;;;4943701;29;19926;-80
2021/03/07 11:36:09;;;;;;;;;;;9.50;56.30;;;;;;4948204;28;19910;-79
2021/03/07 11:38:35;;;;;;;;;;;9.70;52.10;;;;;;4938018;29;20495;-79
2021/03/07 11:41:01;;;;;;;;;;;9.90;55.20;;;;;;4948346;28;19946;-79
2021/03/07 11:43:29;;;;;;;;;;;9.90;49.80;;;;;;4966616;28;19956;-78
2021/03/07 11:45:54;;;;;;;;;;;10.00;52.10;;;;;;4943637;29;19910;-80
2021/03/07 11:48:20;;;;;;;;;;;10.10;51.60;;;;;;4947256;28;19926;-77
2021/03/07 11:50:48;;;;;;;;;;;10.20;46.10;;;;;;4947031;28;20650;-76
2021/03/07 11:53:13;;;;;;;;;;;10.40;50.00;;;;;;4945954;28;19954;-80
2021/03/07 11:55:39;;;;;;;;;;;10.50;47.70;;;;;;4947486;28;19977;-79
2021/03/07 11:58:07;;;;;;;;;;;10.70;47.70;;;;;;4947297;28;19914;-79
2021/03/07 12:00:34;;;;;;;;;;;10.90;45.00;;;;;;4946108;28;19965;-79
2021/03/07 12:03:00;;;;;;;;;;;10.90;52.60;;;;;;4944260;29;19997;-79
2021/03/07 12:05:26;;;;;;;;;;;11.10;45.50;;;;;;4946369;29;19957;-79
2021/03/07 12:07:51;;;;;;;;;;;11.20;48.20;;;;;;4945145;29;19918;-80
2021/03/07 12:10:19;;;;;;;;;;;11.30;48.60;;;;;;4963854;28;20344;-79
2021/03/07 12:12:45;;;;;;;;;;;11.40;46.00;;;;;;4944920;28;19921;-80
2021/03/07 12:15:11;;;;;;;;;;;11.50;46.10;;;;;;4945245;28;20038;-80
2021/03/07 12:17:38;;;;;;;;;;;11.50;43.40;;;;;;4944448;28;19918;-80
2021/03/07 12:20:05;;;;;;;;;;;11.40;43.40;;;;;;4946208;29;19957;-80
2021/03/07 12:22:30;;;;;;;;;;;11.30;45.70;;;;;;4949356;28;19911;-80
2021/03/07 12:24:58;;;;;;;;;;;11.20;46.80;;;;;;4965332;28;19910;-80
2021/03/07 12:27:24;;;;;;;;;;;11.10;44.70;;;;;;4946345;29;20299;-80
2021/03/07 12:29:52;;;;;;;;;;;10.80;47.40;;;;;;4943796;29;19925;-80
2021/03/07 12:32:20;;;;;;;;;;;10.60;47.00;;;;;;4958833;28;19918;-80
2021/03/07 12:34:45;;;;;;;;;;;10.30;49.40;;;;;;4945314;28;19934;-80
2021/03/07 12:37:13;;;;;;;;;;;10.40;52.20;;;;;;4946552;28;19914;-80
2021/03/07 12:39:39;;;;;;;;;;;10.50;55.30;;;;;;4945099;28;19914;-80
2021/03/07 12:42:04;;;;;;;;;;;10.50;48.90;;;;;;4947996;28;19918;-79
2021/03/07 12:44:32;;;;;;;;;;;10.20;47.30;;;;;;4945323;29;19910;-80
2021/03/07 12:46:58;;;;;;;;;;;10.00;48.90;;;;;;4946258;29;19918;-80
2021/03/07 12:49:33;;;;;;;;;;;9.70;49.60;;;;;;4946696;28;20361;-80
2021/03/07 12:51:59;;;;;;;;;;;9.70;52.10;;;;;;4944909;29;20012;-80
2021/03/07 12:54:25;;;;;;;;;;;9.60;53.20;;;;;;4946923;28;20013;-80
2021/03/07 12:56:52;;;;;;;;;;;9.50;51.30;;;;;;4945673;29;21052;-80
2021/03/07 12:59:18;;;;;;;;;;;9.50;51.10;;;;;;4944893;29;19965;-80
2021/03/07 13:01:46;;;;;;;;;;;9.30;51.80;;;;;;4942528;29;20420;-81
2021/03/07 13:04:11;;;;;;;;;;;9.30;49.20;;;;;;4947037;29;20293;-80
2021/03/07 13:06:39;;;;;;;;;;;9.20;47.10;;;;;;4946788;29;19918;-80
2021/03/07 13:09:05;;;;;;;;;;;9.10;49.40;;;;;;4946475;29;19918;-80
2021/03/07 13:11:31;;;;;;;;;;;9.30;52.70;;;;;;4945830;28;20781;-80
2021/03/07 13:13:59;;;;;;;;;;;9.30;52.30;;;;;;4946972;29;19989;-80
2021/03/07 13:16:24;;;;;;;;;;;9.40;47.20;;;;;;4945072;28;19910;-80
2021/03/07 13:18:50;;;;;;;;;;;9.60;51.70;;;;;;4945509;28;19940;-79
2021/03/07 13:21:16;;;;;;;;;;;9.80;49.00;;;;;;4947272;29;19977;-79
2021/03/07 13:23:41;;;;;;;;;;;10.00;48.50;;;;;;4942766;29;19911;-79
2021/03/07 13:26:12;;;;;;;;;;;10.10;53.00;;;;;;4944983;28;20547;-80
2021/03/07 13:28:37;;;;;;;;;;;10.20;50.00;;;;;;4948421;28;19914;-80
2021/03/07 13:31:03;;;;;;;;;;;10.10;47.10;;;;;;4950552;28;19977;-80
2021/03/07 13:33:29;;;;;;;;;;;10.00;47.00;;;;;;4948959;28;19922;-79
2021/03/07 13:35:54;;;;;;;;;;;9.80;46.40;;;;;;4954521;28;20010;-79
2021/03/07 13:38:20;;;;;;;;;;;9.70;46.00;;;;;;4946213;29;19990;-80
2021/03/07 13:40:48;;;;;;;;;;;9.50;45.60;;;;;;4949021;28;19918;-80
2021/03/07 13:43:13;;;;;;;;;;;9.20;46.40;;;;;;4946382;29;20372;-80
2021/03/07 13:45:39;;;;;;;;;;;9.10;46.40;;;;;;4945373;29;19946;-80
2021/03/07 13:48:04;;;;;;;;;;;9.00;47.50;;;;;;4947724;29;20436;-80
2021/03/07 13:50:30;;;;;;;;;;;8.90;49.70;;;;;;4942626;29;19972;-80
2021/03/07 13:52:57;;;;;;;;;;;8.80;47.80;;;;;;4946305;28;19953;-80
2021/03/07 13:55:25;;;;;;;;;;;8.60;47.30;;;;;;4947649;29;19973;-79
2021/03/07 13:57:50;;;;;;;;;;;8.50;52.70;;;;;;4948115;28;20516;-80
2021/03/07 14:00:16;;;;;;;;;;;8.50;50.60;;;;;;4948906;28;19942;-80
2021/03/07 14:02:44;;;;;;;;;;;8.40;51.60;;;;;;4947672;28;19922;-80
2021/03/07 14:05:10;;;;;;;;;;;8.20;50.60;;;;;;4946184;29;20005;-80
2021/03/07 14:07:36;;;;;;;;;;;8.20;50.90;;;;;;4944399;29;20005;-80
2021/03/07 14:10:02;;;;;;;;;;;8.10;49.60;;;;;;4944214;29;20351;-80
2021/03/07 14:12:29;;;;;;;;;;;8.10;51.40;;;;;;4947909;29;20394;-80
2021/03/07 14:14:55;;;;;;;;;;;8.00;51.80;;;;;;4947454;29;20021;-80
2021/03/07 14:17:21;;;;;;;;;;;8.00;52.00;;;;;;4946409;29;20009;-80
2021/03/07 14:19:46;;;;;;;;;;;7.90;53.30;;;;;;4944357;28;19925;-80
2021/03/07 14:22:14;;;;;;;;;;;7.90;52.00;;;;;;4958735;28;19975;-78
2021/03/07 14:24:40;;;;;;;;;;;7.90;53.70;;;;;;4963119;28;20017;-78
2021/03/07 14:27:07;;;;;;;;;;;7.80;52.60;;;;;;4944650;29;20345;-78